EDT,Max TemperatureF,Mean TemperatureF,Min TemperatureF,Max Dew PointF,MeanDew PointF,Min DewpointF,Max Humidity, Mean Humidity, Min Humidity, Max Sea Level PressureIn, Mean Sea Level PressureIn, Min Sea Level PressureIn, Max VisibilityMiles, Mean VisibilityMiles, Min VisibilityMiles, Max Wind SpeedMPH, Mean Wind SpeedMPH, Max Gust SpeedMPH,PrecipitationIn, CloudCover, Events, WindDirDegrees
2013-4-1,72,60,48,60,55,43,100,69,37,29.94,29.87,29.83,10,9,5,18,5,25,0.10,5,Rain,272
2013-4-2,64,54,43,45,37,30,89,63,36,30.16,30.08,29.96,10,10,10,20,6,24,0.00,0,,19
2013-4-3,59,53,47,45,34,22,86,60,33,30.27,30.21,30.12,10,10,10,16,6,21,0.00,5,,42
2013-4-4,48,45,42,45,42,35,100,83,65,30.29,30.08,29.87,10,5,1,18,9,26,1.03,7,Rain,55
2013-4-5,61,51,40,47,43,40,100,79,57,30.03,29.95,29.88,10,8,1,15,5,21,0.00,5,,353
2013-4-6,68,52,35,43,39,35,100,65,30,30.27,30.12,30.04,10,6,0,16,6,23,0.00,0,Fog,86
2013-4-7,73,55,37,53,44,36,93,66,38,30.27,30.21,30.12,10,10,10,13,3,18,0.00,0,,171
2013-4-8,78,62,46,58,53,46,100,71,42,30.20,30.15,30.09,10,6,0,13,5,17,0.00,2,Fog,212
2013-4-9,82,66,50,63,57,50,100,74,48,30.22,30.16,30.10,10,6,0,14,5,17,0.00,2,Fog,206
2013-4-10,83,69,54,63,59,54,100,76,51,30.15,30.08,29.99,10,8,0,13,7,17,0.00,0,Fog,211
2013-4-11,83,69,54,70,63,54,100,76,51,30.03,29.94,29.83,10,8,0,16,7,22,0.07,4,Fog-Rain,200
2013-4-12,81,72,62,70,67,62,97,83,69,29.84,29.75,29.67,10,9,1,28,9,35,0.35,6,Rain,204
2013-4-13,75,61,46,53,47,42,93,63,33,30.03,29.92,29.80,10,10,10,16,5,23,0.00,0,,292
2013-4-14,77,60,43,58,49,43,100,72,43,30.10,30.06,30.01,10,4,0,12,3,17,0.01,1,Fog,138
2013-4-15,73,65,57,62,59,56,93,79,64,30.18,30.06,29.94,10,10,10,16,5,25,0.03,8,Rain,99
2013-4-16,79,65,51,60,57,51,100,74,48,30.28,30.22,30.19,10,7,0,8,2,15,0.00,2,Fog,96
2013-4-17,84,68,51,63,57,52,100,74,47,30.25,30.20,30.11,10,4,0,9,2,15,0.00,2,Fog,171
2013-4-18,82,68,53,64,58,53,100,76,51,30.19,30.14,30.06,10,6,0,18,5,24,0.00,2,Fog,146
2013-4-19,84,75,65,70,66,64,100,78,55,30.04,29.91,29.80,10,8,1,33,10,43,0.72,6,Rain,195
2013-4-20,67,54,41,65,48,36,100,70,40,30.27,30.05,29.88,10,9,2,24,6,31,0.19,3,Rain,300
2013-4-21,68,53,37,44,40,36,100,69,37,30.43,30.33,30.26,10,6,1,18,9,28,0.00,0,,68
2013-4-22,65,53,41,46,41,36,82,65,48,30.42,30.30,30.20,10,10,9,22,13,28,0.00,3,,32
2013-4-23,69,58,46,53,49,46,100,75,49,30.24,30.18,30.13,10,9,5,17,6,23,T,5,,26
2013-4-24,78,61,43,59,50,43,100,72,43,30.18,30.13,30.03,10,6,1,17,6,22,0.00,0,,204
2013-4-25,75,62,48,59,54,50,93,69,44,30.27,30.16,30.05,10,10,6,15,5,20,0.00,5,,21
2013-4-26,75,61,46,53,47,43,100,67,33,30.42,30.33,30.27,10,7,0,12,4,17,0.00,0,Fog,74
2013-4-27,75,63,50,56,50,42,93,64,35,30.38,30.32,30.27,10,10,10,12,3,15,T,5,,104
2013-4-28,71,63,55,61,55,47,78,70,61,30.26,30.15,30.08,10,9,2,16,7,22,0.34,8,Rain,133
2013-4-29,76,69,62,65,62,60,100,84,68,30.08,30.03,29.97,10,6,1,13,3,17,1.07,7,Rain,164
2013-4-30,78,68,58,63,61,56,100,80,60,30.14,30.05,29.99,10,8,2,17,7,22,0.00,6,,38